createdAt,value
2019-02-15T00:00:35.549Z,72.20
2019-02-15T00:01:42.103Z,74.50
2019-02-15T00:02:44.942Z,73.30
2019-02-15T00:03:47.481Z,74.40
2019-02-15T00:04:50.208Z,74.40
2019-02-15T00:05:52.782Z,75.80
2019-02-15T00:06:55.316Z,74.10
2019-02-15T00:07:58.053Z,73.70
2019-02-15T00:09:00.662Z,75.10
2019-02-15T00:10:03.734Z,75.40
2019-02-15T00:11:06.380Z,76.00
2019-02-15T00:12:09.010Z,75.60
2019-02-15T00:13:13.515Z,75.70
2019-02-15T00:14:16.352Z,76.70
2019-02-15T00:15:18.883Z,75.40
2019-02-15T00:16:21.432Z,75.00
2019-02-15T00:17:42.010Z,75.40
2019-02-15T00:19:08.713Z,76.70
2019-02-15T00:20:16.906Z,77.50
2019-02-15T00:21:23.101Z,77.70
2019-02-15T00:22:27.620Z,77.70
2019-02-15T00:23:30.273Z,76.70
2019-02-15T00:24:32.937Z,75.60
2019-02-15T00:25:35.481Z,75.50
2019-02-15T00:26:38.050Z,76.80
2019-02-15T00:27:40.634Z,77.00
2019-02-15T00:28:43.165Z,77.50
2019-02-15T00:29:47.414Z,76.90
2019-02-15T00:30:50.026Z,77.50
2019-02-15T00:31:52.832Z,77.00
2019-02-15T00:32:55.358Z,77.00
2019-02-15T00:33:58.102Z,74.40
2019-02-15T00:35:00.686Z,72.00
2019-02-15T00:36:03.315Z,71.80
2019-02-15T00:37:05.858Z,75.80
2019-02-15T00:38:08.655Z,72.90
2019-02-15T00:39:11.350Z,71.80
2019-02-15T00:40:13.990Z,73.90
2019-02-15T00:41:16.689Z,74.30
2019-02-15T00:42:19.251Z,70.70
2019-02-15T00:43:22.539Z,75.20
2019-02-15T00:44:25.535Z,74.00
2019-02-15T00:45:30.734Z,72.30
2019-02-15T00:46:42.270Z,74.00
2019-02-15T00:48:06.851Z,76.30
2019-02-15T00:49:13.421Z,77.10
2019-02-15T00:50:36.819Z,75.50
2019-02-15T00:52:01.902Z,74.10
2019-02-15T00:53:20.799Z,71.80
2019-02-15T00:54:35.194Z,72.70
2019-02-15T00:55:56.518Z,75.50
2019-02-15T00:57:30.485Z,75.00
2019-02-15T00:58:51.625Z,75.50
2019-02-15T01:00:12.956Z,75.50
2019-02-15T01:01:33.847Z,76.90
2019-02-15T01:02:47.772Z,77.40
2019-02-15T01:04:08.249Z,75.70
2019-02-15T01:05:27.393Z,75.30
2019-02-15T01:06:55.928Z,76.20
2019-02-15T01:08:33.651Z,77.60
2019-02-15T01:09:42.223Z,76.50
2019-02-15T01:10:54.844Z,75.80
2019-02-15T01:12:26.156Z,75.70
2019-02-15T01:13:31.344Z,77.40
2019-02-15T01:14:34.835Z,78.00
2019-02-15T01:15:40.258Z,78.10
2019-02-15T01:16:43.792Z,78.70
2019-02-15T01:17:47.614Z,77.60
2019-02-15T01:18:50.642Z,78.20
2019-02-15T01:19:53.920Z,77.80
2019-02-15T01:20:57.266Z,77.90
2019-02-15T01:21:59.902Z,79.20
2019-02-15T01:23:03.162Z,75.30
2019-02-15T01:24:07.462Z,76.60
2019-02-15T01:25:10.839Z,76.90
2019-02-15T01:26:25.974Z,76.80
2019-02-15T01:27:47.269Z,78.40
2019-02-15T01:29:15.865Z,77.80
2019-02-15T01:30:47.317Z,78.00
2019-02-15T01:32:28.219Z,75.30
2019-02-15T01:33:59.166Z,77.70
2019-02-15T01:35:23.851Z,78.70
2019-02-15T01:36:45.416Z,78.70
2019-02-15T01:38:29.275Z,77.70
2019-02-15T01:39:41.634Z,75.20
2019-02-15T01:41:15.824Z,75.70
2019-02-15T01:42:42.639Z,77.10
2019-02-15T01:44:01.754Z,79.00
2019-02-15T01:45:10.777Z,78.20
2019-02-15T01:46:20.036Z,78.90
2019-02-15T01:47:26.072Z,79.50
2019-02-15T01:48:28.595Z,78.60
2019-02-15T01:49:31.101Z,76.80
2019-02-15T01:50:33.637Z,79.40
2019-02-15T01:51:36.192Z,79.50
2019-02-15T01:52:38.727Z,78.70
2019-02-15T01:53:41.228Z,79.00
2019-02-15T01:54:43.727Z,77.70
2019-02-15T01:55:46.257Z,77.40
2019-02-15T01:56:49.071Z,76.10
2019-02-15T01:57:51.639Z,76.60
2019-02-15T01:58:54.273Z,78.50
2019-02-15T01:59:56.789Z,78.70
2019-02-15T02:00:59.317Z,78.80
2019-02-15T02:02:01.827Z,78.90
2019-02-15T02:03:04.393Z,78.70
2019-02-15T02:04:06.899Z,77.70
2019-02-15T02:05:09.442Z,75.70
2019-02-15T02:06:12.170Z,78.70
2019-02-15T02:07:14.801Z,79.00
2019-02-15T02:08:24.344Z,76.00
2019-02-15T02:09:26.861Z,75.20
2019-02-15T02:10:29.755Z,78.60
2019-02-15T02:11:32.571Z,77.50
2019-02-15T02:12:35.214Z,78.80
2019-02-15T02:13:38.389Z,76.50
2019-02-15T02:14:41.031Z,78.40
2019-02-15T02:15:43.570Z,78.30
2019-02-15T02:16:46.208Z,78.20
2019-02-15T02:17:48.882Z,78.10
2019-02-15T02:18:51.502Z,78.10
2019-02-15T02:19:54.038Z,78.10
2019-02-15T02:20:56.744Z,78.50
2019-02-15T02:21:59.327Z,78.50
2019-02-15T02:23:02.062Z,78.10
2019-02-15T02:24:04.630Z,78.50
2019-02-15T02:25:07.580Z,79.60
2019-02-15T02:26:10.218Z,77.70
2019-02-15T02:27:12.738Z,78.80
2019-02-15T02:28:15.445Z,79.60
2019-02-15T02:29:18.089Z,78.70
2019-02-15T02:30:20.681Z,79.10
2019-02-15T02:31:23.410Z,79.00
2019-02-15T02:32:26.108Z,78.80
2019-02-15T02:33:28.656Z,78.40
2019-02-15T02:34:31.386Z,77.30
2019-02-15T02:35:34.115Z,77.20
2019-02-15T02:36:53.491Z,77.50
2019-02-15T02:37:56.076Z,78.60
2019-02-15T02:38:58.710Z,78.50
2019-02-15T02:40:01.460Z,78.70
2019-02-15T02:41:04.106Z,78.60
2019-02-15T02:42:06.651Z,78.40
2019-02-15T02:43:09.175Z,77.60
2019-02-15T02:44:11.815Z,77.00
2019-02-15T02:45:14.469Z,77.00
2019-02-15T02:46:18.079Z,77.50
2019-02-15T02:47:20.689Z,77.80
2019-02-15T02:48:25.027Z,78.20
2019-02-15T02:49:27.642Z,79.10
2019-02-15T02:50:30.151Z,78.00
2019-02-15T02:51:32.957Z,77.70
2019-02-15T02:52:35.730Z,77.70
2019-02-15T02:53:38.245Z,77.00
2019-02-15T02:54:41.874Z,77.90
2019-02-15T02:55:46.174Z,77.50
2019-02-15T02:56:48.699Z,77.60
2019-02-15T02:57:51.499Z,77.20
2019-02-15T02:58:54.067Z,77.20
2019-02-15T02:59:56.785Z,78.10
2019-02-15T03:00:59.425Z,78.70
2019-02-15T03:02:02.141Z,78.50
2019-02-15T03:03:04.794Z,78.20
2019-02-15T03:04:07.343Z,78.20
2019-02-15T03:05:09.865Z,79.40
2019-02-15T03:06:12.623Z,78.40
2019-02-15T03:07:15.253Z,78.50
2019-02-15T03:08:17.904Z,78.40
2019-02-15T03:09:20.634Z,78.90
2019-02-15T03:10:23.209Z,78.80
2019-02-15T03:11:25.907Z,79.00
2019-02-15T03:12:28.482Z,77.70
2019-02-15T03:13:31.189Z,77.10
2019-02-15T03:14:33.722Z,76.10
2019-02-15T03:15:36.268Z,78.50
2019-02-15T03:16:40.325Z,78.50
2019-02-15T03:17:42.973Z,79.20
2019-02-15T03:18:47.298Z,78.80
2019-02-15T03:19:49.948Z,79.00
2019-02-15T03:20:52.494Z,78.20
2019-02-15T03:21:55.140Z,78.50
2019-02-15T03:22:57.750Z,78.50
2019-02-15T03:24:00.382Z,79.00
2019-02-15T03:25:03.149Z,78.10
2019-02-15T03:26:05.803Z,80.00
2019-02-15T03:27:08.492Z,77.80
2019-02-15T03:28:11.100Z,79.30
2019-02-15T03:29:13.641Z,78.40
2019-02-15T03:30:17.317Z,78.10
2019-02-15T03:31:19.929Z,78.10
2019-02-15T03:32:22.481Z,78.10
2019-02-15T03:33:25.113Z,77.90
2019-02-15T03:34:28.016Z,78.50
2019-02-15T03:35:30.663Z,77.80
2019-02-15T03:36:42.044Z,79.00
2019-02-15T03:38:16.367Z,78.50
2019-02-15T03:39:29.779Z,78.20
2019-02-15T03:40:38.837Z,78.10
2019-02-15T03:41:41.347Z,79.10
2019-02-15T03:42:43.951Z,79.20
2019-02-15T03:43:46.675Z,79.40
2019-02-15T03:44:49.315Z,79.80
2019-02-15T03:45:52.157Z,80.00
2019-02-15T03:46:54.868Z,79.70
2019-02-15T03:47:57.610Z,79.20
2019-02-15T03:49:00.252Z,79.60
2019-02-15T03:50:05.000Z,79.80
2019-02-15T03:51:07.618Z,79.70
2019-02-15T03:52:11.525Z,80.00
2019-02-15T03:53:15.877Z,79.80
2019-02-15T03:54:19.597Z,79.70
2019-02-15T03:55:22.313Z,78.70
2019-02-15T03:56:25.089Z,80.10
2019-02-15T03:57:27.724Z,79.70
2019-02-15T03:58:30.607Z,78.80
2019-02-15T03:59:33.338Z,78.50
2019-02-15T04:00:36.180Z,79.40
2019-02-15T04:01:38.872Z,79.20
2019-02-15T04:02:41.452Z,79.40
2019-02-15T04:03:44.383Z,79.40
2019-02-15T04:04:46.950Z,79.00
2019-02-15T04:05:49.941Z,79.70
2019-02-15T04:06:52.452Z,79.60
2019-02-15T04:07:55.166Z,79.50
2019-02-15T04:08:57.830Z,79.20
2019-02-15T04:10:00.610Z,77.90
2019-02-15T04:11:03.440Z,79.70
2019-02-15T04:12:06.076Z,79.50
2019-02-15T04:13:09.141Z,77.70
2019-02-15T04:14:11.658Z,80.00
2019-02-15T04:15:16.081Z,79.30
2019-02-15T04:16:18.882Z,79.20
2019-02-15T04:17:21.827Z,79.70
2019-02-15T04:18:24.767Z,79.40
2019-02-15T04:19:27.389Z,79.10
2019-02-15T04:20:30.001Z,79.60
2019-02-15T04:21:35.410Z,79.30
2019-02-15T04:22:38.171Z,80.00
2019-02-15T04:23:40.831Z,80.00
2019-02-15T04:24:45.139Z,79.60
2019-02-15T04:25:48.441Z,79.30
2019-02-15T04:26:51.062Z,77.50
2019-02-15T04:27:55.017Z,79.00
2019-02-15T04:28:57.636Z,79.40
2019-02-15T04:30:01.271Z,78.90
2019-02-15T04:31:03.954Z,79.40
2019-02-15T04:32:06.679Z,79.80
2019-02-15T04:33:09.375Z,78.10
2019-02-15T04:34:12.073Z,77.70
2019-02-15T04:35:14.607Z,78.80
2019-02-15T04:36:18.247Z,79.00
2019-02-15T04:37:20.987Z,79.30
2019-02-15T04:38:23.509Z,80.10
2019-02-15T04:39:26.140Z,78.90
2019-02-15T04:40:29.996Z,79.00
2019-02-15T04:41:33.021Z,80.50
2019-02-15T04:42:35.671Z,79.20
2019-02-15T04:43:38.194Z,79.50
2019-02-15T04:44:42.818Z,79.40
2019-02-15T04:45:45.155Z,80.00
2019-02-15T04:46:50.050Z,79.00
2019-02-15T04:47:52.562Z,79.10
2019-02-15T04:48:55.188Z,79.20
2019-02-15T04:49:59.528Z,80.00
2019-02-15T04:51:02.068Z,80.40
2019-02-15T04:52:04.721Z,80.50
2019-02-15T04:53:07.404Z,79.80
2019-02-15T04:54:09.950Z,80.00
2019-02-15T04:55:12.555Z,78.90
2019-02-15T04:56:15.083Z,79.70
2019-02-15T04:57:17.991Z,79.60
2019-02-15T04:58:20.494Z,79.20
2019-02-15T04:59:23.280Z,80.20
2019-02-15T05:00:25.884Z,80.00
2019-02-15T05:01:28.601Z,79.40
2019-02-15T05:02:31.394Z,79.90
2019-02-15T05:03:34.280Z,81.10
2019-02-15T05:04:36.816Z,79.50
2019-02-15T05:05:39.391Z,80.50
2019-02-15T05:06:42.003Z,80.50
2019-02-15T05:07:44.533Z,80.70
2019-02-15T05:08:47.198Z,80.10
2019-02-15T05:09:49.736Z,80.60
2019-02-15T05:10:52.421Z,80.80
2019-02-15T05:11:55.045Z,80.10
2019-02-15T05:12:57.678Z,80.30
2019-02-15T05:14:00.435Z,80.00
2019-02-15T05:15:03.216Z,80.70
2019-02-15T05:16:05.909Z,80.60
2019-02-15T05:17:08.553Z,80.90
2019-02-15T05:18:11.268Z,80.30
2019-02-15T05:19:13.867Z,80.10
2019-02-15T05:20:16.390Z,79.50
2019-02-15T05:21:18.937Z,80.00
2019-02-15T05:22:21.578Z,80.40
2019-02-15T05:23:24.242Z,80.30
2019-02-15T05:24:27.117Z,80.10
2019-02-15T05:25:29.775Z,79.70
2019-02-15T05:26:32.488Z,79.00
2019-02-15T05:27:34.986Z,79.60
2019-02-15T05:28:38.998Z,79.50
2019-02-15T05:29:41.662Z,79.40
2019-02-15T05:30:44.233Z,79.50
2019-02-15T05:31:46.790Z,77.80
2019-02-15T05:32:49.668Z,78.70
2019-02-15T05:33:52.293Z,79.00
2019-02-15T05:34:54.906Z,80.00
2019-02-15T05:35:57.454Z,79.40
2019-02-15T05:36:59.974Z,79.40
2019-02-15T05:38:02.530Z,79.00
2019-02-15T05:39:07.651Z,79.50
2019-02-15T05:40:10.200Z,79.10
2019-02-15T05:41:13.406Z,79.60
2019-02-15T05:42:15.939Z,79.60
2019-02-15T05:43:18.581Z,79.10
2019-02-15T05:44:33.970Z,78.50
2019-02-15T05:45:38.363Z,77.90
2019-02-15T05:46:42.152Z,77.80
2019-02-15T05:47:44.887Z,78.10
2019-02-15T05:48:47.564Z,78.40
2019-02-15T05:49:50.247Z,77.10
2019-02-15T05:50:52.799Z,77.40
2019-02-15T05:51:55.377Z,78.20
2019-02-15T05:52:57.976Z,78.00
2019-02-15T05:54:01.030Z,77.70
2019-02-15T05:55:03.727Z,77.90
2019-02-15T05:56:06.271Z,78.80
2019-02-15T05:57:09.733Z,78.90
2019-02-15T05:58:12.485Z,78.60
2019-02-15T05:59:15.020Z,77.50
2019-02-15T06:00:17.763Z,77.20
2019-02-15T06:01:21.177Z,78.30
2019-02-15T06:02:23.812Z,77.10
2019-02-15T06:03:26.437Z,76.90
2019-02-15T06:04:28.991Z,75.50
2019-02-15T06:05:31.805Z,76.30
2019-02-15T06:06:34.439Z,75.30
2019-02-15T06:07:36.978Z,75.90
2019-02-15T06:08:39.734Z,75.70
2019-02-15T06:09:42.299Z,76.00
2019-02-15T06:10:44.927Z,75.70
2019-02-15T06:11:47.489Z,75.00
2019-02-15T06:12:50.120Z,74.30
2019-02-15T06:13:52.813Z,73.50
2019-02-15T06:14:55.405Z,74.30
2019-02-15T06:15:58.011Z,74.10
2019-02-15T06:17:01.821Z,73.70
2019-02-15T06:18:04.611Z,74.20
2019-02-15T06:19:07.622Z,73.70
2019-02-15T06:20:10.181Z,73.20
2019-02-15T06:21:12.709Z,74.20
2019-02-15T06:22:15.405Z,73.80
2019-02-15T06:23:18.192Z,72.80
2019-02-15T06:24:20.927Z,73.70
2019-02-15T06:25:23.634Z,73.30
2019-02-15T06:26:26.420Z,73.30
2019-02-15T06:27:29.173Z,74.20
2019-02-15T06:28:31.781Z,73.30
2019-02-15T06:29:34.398Z,73.20
2019-02-15T06:30:36.967Z,72.80
2019-02-15T06:31:39.521Z,73.50
2019-02-15T06:32:42.294Z,72.80
2019-02-15T06:33:45.176Z,72.10
2019-02-15T06:34:47.744Z,73.60
2019-02-15T06:35:50.366Z,73.10
2019-02-15T06:36:52.963Z,72.70
2019-02-15T06:37:56.618Z,71.60
2019-02-15T06:38:59.345Z,73.70
2019-02-15T06:40:02.016Z,74.10
2019-02-15T06:41:04.865Z,73.40
2019-02-15T06:42:07.800Z,72.40
2019-02-15T06:43:10.596Z,71.40
2019-02-15T06:44:14.334Z,71.00
2019-02-15T06:45:24.273Z,72.80
2019-02-15T06:46:21.419Z,73.20
2019-02-15T06:47:23.985Z,73.00
2019-02-15T06:48:26.850Z,73.40
2019-02-15T06:49:29.475Z,73.30
2019-02-15T06:50:32.330Z,71.80
2019-02-15T06:51:34.935Z,71.20
2019-02-15T06:52:37.728Z,72.10
2019-02-15T06:53:40.437Z,72.90
2019-02-15T06:54:43.121Z,70.80
2019-02-15T06:55:45.660Z,72.40
2019-02-15T06:56:48.190Z,73.30
2019-02-15T06:57:50.911Z,72.20
2019-02-15T06:59:10.586Z,71.30
2019-02-15T07:00:32.584Z,72.00
2019-02-15T07:01:57.488Z,72.80
2019-02-15T07:03:19.194Z,72.10
2019-02-15T07:04:43.904Z,70.60
2019-02-15T07:05:46.689Z,72.00
2019-02-15T07:06:49.251Z,72.20
2019-02-15T07:07:52.168Z,72.50
2019-02-15T07:08:56.516Z,72.20
2019-02-15T07:09:59.187Z,71.00
2019-02-15T07:11:01.787Z,71.20
2019-02-15T07:12:04.337Z,72.10
2019-02-15T07:13:06.898Z,73.10
2019-02-15T07:14:09.488Z,70.50
2019-02-15T07:15:12.046Z,70.50
2019-02-15T07:16:14.755Z,71.20
2019-02-15T07:17:25.462Z,71.40
2019-02-15T07:18:28.032Z,69.80
2019-02-15T07:19:30.696Z,71.50
2019-02-15T07:20:33.439Z,72.70
2019-02-15T07:21:36.139Z,72.00
2019-02-15T07:22:39.444Z,74.70
2019-02-15T07:23:42.052Z,72.10
2019-02-15T07:24:44.911Z,73.70
2019-02-15T07:25:49.589Z,74.20
2019-02-15T07:26:54.198Z,74.00
2019-02-15T07:27:56.767Z,75.10
2019-02-15T07:28:59.346Z,74.20
2019-02-15T07:30:02.271Z,73.40
2019-02-15T07:31:05.165Z,74.40
2019-02-15T07:32:07.863Z,74.40
2019-02-15T07:33:10.468Z,76.40
2019-02-15T07:34:13.007Z,75.70
2019-02-15T07:35:15.841Z,75.40
2019-02-15T07:36:18.387Z,74.90
2019-02-15T07:37:20.937Z,75.40
2019-02-15T07:38:25.271Z,75.70
2019-02-15T07:39:27.991Z,76.30
2019-02-15T07:40:30.561Z,76.60
2019-02-15T07:41:33.211Z,76.30
2019-02-15T07:42:36.837Z,76.50
2019-02-15T07:43:39.402Z,76.40
2019-02-15T07:44:52.710Z,77.00
2019-02-15T07:47:29.650Z,75.70
2019-02-15T07:48:39.301Z,76.80
2019-02-15T07:49:43.062Z,76.10
2019-02-15T07:50:46.151Z,75.80
2019-02-15T07:51:48.727Z,76.90
2019-02-15T07:52:51.370Z,77.40
2019-02-15T07:53:53.927Z,76.90
2019-02-15T07:54:56.463Z,76.50
2019-02-15T07:55:59.350Z,77.60
2019-02-15T07:57:02.225Z,77.70
2019-02-15T07:58:05.100Z,77.20
2019-02-15T07:59:08.146Z,76.80
2019-02-15T08:00:12.492Z,77.50
2019-02-15T08:01:15.135Z,76.80
2019-02-15T08:02:17.827Z,77.30
2019-02-15T08:03:20.280Z,77.00
2019-02-15T08:04:22.842Z,78.30
2019-02-15T08:05:25.407Z,77.10
2019-02-15T08:06:28.061Z,77.00
2019-02-15T08:07:30.909Z,78.00
2019-02-15T08:08:33.608Z,77.90
2019-02-15T08:09:36.127Z,78.30
2019-02-15T08:10:39.499Z,78.50
2019-02-15T08:11:42.466Z,78.30
2019-02-15T08:12:45.214Z,77.40
2019-02-15T08:13:47.858Z,77.90
2019-02-15T08:14:50.382Z,78.20
2019-02-15T08:15:53.019Z,79.50
2019-02-15T08:16:55.705Z,78.60
2019-02-15T08:17:58.317Z,78.30
2019-02-15T08:19:01.062Z,78.50
2019-02-15T08:20:04.328Z,78.90
2019-02-15T08:21:07.080Z,78.60
2019-02-15T08:22:09.680Z,79.00
2019-02-15T08:23:12.344Z,77.80
2019-02-15T08:24:14.988Z,79.00
2019-02-15T08:25:17.649Z,79.70
2019-02-15T08:26:20.395Z,79.00
2019-02-15T08:27:22.941Z,79.00
2019-02-15T08:28:25.704Z,79.30
2019-02-15T08:29:28.363Z,77.50
2019-02-15T08:30:32.074Z,79.00
2019-02-15T08:31:34.667Z,76.20
2019-02-15T08:32:37.375Z,77.20
2019-02-15T08:33:40.087Z,78.00
2019-02-15T08:34:42.715Z,76.00
2019-02-15T08:35:45.367Z,76.30
2019-02-15T08:36:47.898Z,73.20
2019-02-15T08:37:50.634Z,73.20
2019-02-15T08:38:54.994Z,75.50
2019-02-15T08:39:57.968Z,75.80
2019-02-15T08:41:00.929Z,73.20
2019-02-15T08:42:05.554Z,71.90
2019-02-15T08:43:08.349Z,70.50
2019-02-15T08:44:11.001Z,71.90
2019-02-15T08:45:13.723Z,68.80
2019-02-15T08:46:18.096Z,70.10
2019-02-15T08:47:22.815Z,69.40
2019-02-15T08:48:25.394Z,68.00
2019-02-15T08:49:28.099Z,65.80
2019-02-15T08:50:30.977Z,66.80
2019-02-15T08:51:37.652Z,64.70
2019-02-15T08:52:42.990Z,63.20
2019-02-15T08:53:45.573Z,65.70
2019-02-15T08:54:48.173Z,63.30
2019-02-15T08:55:50.870Z,63.10
2019-02-15T08:56:53.443Z,59.10
2019-02-15T08:57:59.107Z,60.10
2019-02-15T08:59:02.093Z,58.00
2019-02-15T09:00:06.189Z,57.50
2019-02-15T09:01:08.889Z,59.30
2019-02-15T09:02:18.371Z,58.90
2019-02-15T09:03:22.108Z,58.60
2019-02-15T09:05:38.495Z,56.90
2019-02-15T09:06:41.409Z,58.80
2019-02-15T09:07:45.240Z,57.50
2019-02-15T09:08:49.988Z,57.70
2019-02-15T09:09:54.581Z,58.00
2019-02-15T09:10:57.318Z,57.50
2019-02-15T09:12:15.678Z,58.80
2019-02-15T09:13:18.211Z,58.10
2019-02-15T09:14:20.778Z,58.50
2019-02-15T09:15:24.645Z,57.60
2019-02-15T09:16:29.212Z,57.50
2019-02-15T09:17:33.599Z,57.70
2019-02-15T09:18:36.300Z,56.30
2019-02-15T09:19:39.013Z,57.20
2019-02-15T09:20:41.832Z,58.50
2019-02-15T09:21:44.498Z,56.40
2019-02-15T09:22:47.065Z,57.80
2019-02-15T09:25:09.927Z,58.20
2019-02-15T09:26:18.044Z,58.30
2019-02-15T09:27:26.260Z,57.80
2019-02-15T09:28:36.138Z,58.50
2019-02-15T09:29:38.930Z,57.70
2019-02-15T09:30:42.448Z,60.10
2019-02-15T09:31:45.167Z,56.90
2019-02-15T09:32:48.038Z,57.60
2019-02-15T09:33:50.822Z,57.00
2019-02-15T09:34:53.485Z,56.70
2019-02-15T09:35:56.319Z,56.50
2019-02-15T09:36:58.904Z,56.50
2019-02-15T09:38:01.470Z,57.40
2019-02-15T09:39:05.843Z,56.80
2019-02-15T09:40:08.714Z,57.10
2019-02-15T09:41:13.645Z,56.40
2019-02-15T09:42:16.230Z,57.50
2019-02-15T09:43:18.878Z,58.40
2019-02-15T09:44:21.517Z,57.80
2019-02-15T09:45:24.043Z,56.90
2019-02-15T09:46:26.598Z,56.40
2019-02-15T09:47:29.121Z,57.00
2019-02-15T09:48:31.935Z,56.50
2019-02-15T09:49:34.501Z,55.30
2019-02-15T09:50:37.258Z,55.00
2019-02-15T09:51:39.910Z,53.80
2019-02-15T09:52:42.586Z,55.10
2019-02-15T09:53:45.227Z,56.90
2019-02-15T09:54:47.766Z,55.50
2019-02-15T09:55:50.336Z,55.90
2019-02-15T09:56:53.150Z,57.50
2019-02-15T09:57:55.749Z,55.40
2019-02-15T09:58:58.280Z,56.50
2019-02-15T10:00:00.814Z,56.90
2019-02-15T10:01:03.414Z,55.70
2019-02-15T10:02:06.040Z,56.00
2019-02-15T10:03:08.665Z,56.00
2019-02-15T10:04:11.246Z,57.70
2019-02-15T10:05:13.958Z,55.80
2019-02-15T10:06:16.699Z,57.70
2019-02-15T10:07:19.526Z,56.10
2019-02-15T10:08:22.150Z,58.90
2019-02-15T10:09:24.687Z,57.80
2019-02-15T10:10:27.212Z,58.20
2019-02-15T10:11:29.823Z,60.70
2019-02-15T10:12:32.519Z,58.80
2019-02-15T10:13:35.330Z,59.60
2019-02-15T10:14:38.154Z,59.10
2019-02-15T10:15:40.666Z,56.10
2019-02-15T10:16:43.420Z,55.30
2019-02-15T10:17:45.996Z,56.90
2019-02-15T10:18:48.533Z,57.70
2019-02-15T10:19:51.257Z,56.20
2019-02-15T10:20:54.013Z,55.60
2019-02-15T10:21:56.757Z,56.70
2019-02-15T10:22:59.517Z,56.50
2019-02-15T10:24:02.246Z,58.10
2019-02-15T10:25:05.224Z,56.80
2019-02-15T10:26:08.096Z,56.50
2019-02-15T10:27:10.618Z,57.10
2019-02-15T10:28:13.607Z,57.50
2019-02-15T10:29:16.311Z,56.70
2019-02-15T10:30:18.976Z,56.10
2019-02-15T10:31:21.742Z,55.60
2019-02-15T10:32:24.496Z,55.30
2019-02-15T10:33:28.910Z,54.10
2019-02-15T10:34:31.463Z,54.00
2019-02-15T10:35:34.245Z,55.20
2019-02-15T10:36:36.839Z,55.10
2019-02-15T10:37:39.369Z,54.70
2019-02-15T10:38:42.022Z,54.60
2019-02-15T10:39:44.890Z,54.50
2019-02-15T10:40:47.762Z,54.70
2019-02-15T10:41:50.498Z,54.80
2019-02-15T10:42:53.069Z,54.60
2019-02-15T10:43:55.730Z,54.00
2019-02-15T10:44:58.298Z,55.30
2019-02-15T10:46:01.028Z,54.00
2019-02-15T10:47:03.774Z,54.40
2019-02-15T10:48:06.591Z,52.70
2019-02-15T10:49:09.218Z,53.70
2019-02-15T10:50:11.830Z,54.60
2019-02-15T10:51:16.283Z,54.70
2019-02-15T10:52:19.106Z,54.90
2019-02-15T10:53:22.761Z,53.00
2019-02-15T10:54:25.431Z,53.50
2019-02-15T10:55:28.309Z,51.60
2019-02-15T10:56:30.895Z,51.00
2019-02-15T10:57:33.689Z,52.40
2019-02-15T10:58:36.350Z,54.40
2019-02-15T10:59:39.024Z,51.60
2019-02-15T11:00:41.649Z,51.80
2019-02-15T11:01:45.367Z,52.00
2019-02-15T11:02:48.110Z,53.30
2019-02-15T11:03:50.750Z,50.80
2019-02-15T11:04:53.339Z,50.50
2019-02-15T11:05:55.989Z,52.60
2019-02-15T11:06:58.617Z,53.10
2019-02-15T11:08:01.513Z,51.40
2019-02-15T11:09:06.897Z,52.90
2019-02-15T11:10:09.760Z,52.20
2019-02-15T11:11:13.886Z,52.50
2019-02-15T11:12:17.410Z,50.40
2019-02-15T11:13:20.617Z,51.10
2019-02-15T11:14:23.614Z,50.40
2019-02-15T11:15:26.281Z,50.50
2019-02-15T11:16:29.063Z,51.70
2019-02-15T11:17:31.829Z,51.30
2019-02-15T11:18:34.436Z,52.50
2019-02-15T11:19:37.021Z,52.50
2019-02-15T11:20:40.785Z,52.10
2019-02-15T11:21:43.361Z,51.20
2019-02-15T11:22:46.095Z,50.00
2019-02-15T11:23:48.649Z,51.10
2019-02-15T11:24:51.204Z,53.70
2019-02-15T11:25:55.065Z,51.50
2019-02-15T11:26:57.786Z,49.90
2019-02-15T11:28:00.342Z,51.10
2019-02-15T11:29:04.688Z,52.30
2019-02-15T11:30:10.268Z,52.50
2019-02-15T11:31:12.938Z,49.00
2019-02-15T11:32:15.763Z,48.30
2019-02-15T11:33:20.202Z,50.00
2019-02-15T11:34:23.050Z,50.00
2019-02-15T11:35:25.796Z,50.00
2019-02-15T11:36:29.853Z,51.60
2019-02-15T11:37:32.808Z,51.10
2019-02-15T11:38:36.596Z,49.30
2019-02-15T11:39:39.559Z,50.80
2019-02-15T11:40:42.174Z,50.70
2019-02-15T11:41:44.820Z,51.20
2019-02-15T11:42:47.418Z,51.90
2019-02-15T11:43:50.137Z,52.40
2019-02-15T11:44:52.792Z,50.70
2019-02-15T11:45:55.649Z,51.60
2019-02-15T11:48:11.614Z,50.00
2019-02-15T11:49:14.176Z,49.00
2019-02-15T11:50:16.814Z,50.00
2019-02-15T11:51:19.826Z,49.30
2019-02-15T11:52:22.414Z,48.70
2019-02-15T11:53:25.131Z,49.30
2019-02-15T11:54:27.898Z,47.30
2019-02-15T11:55:32.216Z,48.30
2019-02-15T11:56:34.830Z,48.00
2019-02-15T11:57:37.414Z,48.60
2019-02-15T11:58:40.298Z,48.10
2019-02-15T11:59:43.175Z,48.20
2019-02-15T12:00:45.734Z,48.20
2019-02-15T12:01:48.358Z,50.50
2019-02-15T12:02:50.937Z,50.10
2019-02-15T12:03:53.607Z,48.30
2019-02-15T12:04:56.378Z,49.60
2019-02-15T12:05:59.149Z,48.20
2019-02-15T12:07:02.085Z,47.80
2019-02-15T12:08:05.144Z,47.20
2019-02-15T12:09:10.151Z,49.00
2019-02-15T12:10:13.244Z,49.00
2019-02-15T12:11:16.183Z,50.60
2019-02-15T12:12:18.849Z,51.20
2019-02-15T12:13:21.406Z,47.50
2019-02-15T12:14:24.003Z,49.30
2019-02-15T12:15:26.883Z,48.80
2019-02-15T12:16:30.711Z,50.60
2019-02-15T12:17:33.296Z,50.10
2019-02-15T12:18:36.063Z,48.00
2019-02-15T12:19:38.816Z,50.00
2019-02-15T12:20:41.341Z,49.50
2019-02-15T12:21:43.855Z,49.80
2019-02-15T12:22:46.540Z,48.20
2019-02-15T12:23:49.128Z,48.30
2019-02-15T12:24:51.758Z,47.20
2019-02-15T12:27:07.666Z,46.90
2019-02-15T12:28:10.260Z,46.90
2019-02-15T12:29:12.846Z,46.40
2019-02-15T12:30:15.782Z,46.20
2019-02-15T12:31:19.713Z,49.60
2019-02-15T12:32:22.381Z,50.20
2019-02-15T12:33:24.958Z,46.80
2019-02-15T12:34:27.559Z,49.30
2019-02-15T12:35:30.315Z,51.60
2019-02-15T12:36:33.094Z,49.20
2019-02-15T12:37:55.102Z,49.50
2019-02-15T12:39:00.603Z,50.40
2019-02-15T12:40:04.424Z,48.70
2019-02-15T12:41:07.177Z,48.80
2019-02-15T12:42:09.859Z,48.60
2019-02-15T12:43:14.790Z,50.40
2019-02-15T12:44:17.466Z,49.40
2019-02-15T12:45:20.257Z,48.80
2019-02-15T12:46:24.932Z,48.30
2019-02-15T12:47:27.810Z,46.50
2019-02-15T12:48:30.605Z,47.40
2019-02-15T12:49:33.193Z,47.20
2019-02-15T12:50:35.863Z,48.60
2019-02-15T12:51:38.498Z,47.60
2019-02-15T12:52:41.074Z,50.10
2019-02-15T12:53:43.621Z,48.50
2019-02-15T12:54:46.768Z,48.30
2019-02-15T12:55:49.743Z,47.70
2019-02-15T12:56:52.499Z,48.70
2019-02-15T12:57:55.115Z,48.40
2019-02-15T12:58:57.779Z,48.20
2019-02-15T13:00:00.398Z,48.30
2019-02-15T13:01:04.047Z,46.30
2019-02-15T13:02:06.955Z,47.50
2019-02-15T13:03:09.937Z,47.30
2019-02-15T13:04:12.586Z,47.30
2019-02-15T13:05:15.402Z,46.70
2019-02-15T13:06:28.183Z,45.70
2019-02-15T13:07:23.983Z,47.30
2019-02-15T13:08:27.766Z,47.70
2019-02-15T13:09:30.548Z,47.50
2019-02-15T13:10:35.251Z,48.80
2019-02-15T13:11:37.853Z,47.70
2019-02-15T13:12:42.810Z,50.50
2019-02-15T13:13:45.454Z,49.10
2019-02-15T13:14:49.258Z,48.50
2019-02-15T13:15:52.729Z,49.70
2019-02-15T13:16:55.385Z,48.00
2019-02-15T13:17:58.422Z,48.10
2019-02-15T13:19:01.254Z,49.50
2019-02-15T13:20:04.158Z,50.10
2019-02-15T13:21:06.719Z,49.10
2019-02-15T13:22:09.552Z,47.40
2019-02-15T13:23:12.356Z,49.60
2019-02-15T13:24:15.069Z,48.60
2019-02-15T13:25:17.905Z,50.70
2019-02-15T13:26:20.812Z,48.20
2019-02-15T13:27:23.579Z,47.80
2019-02-15T13:28:26.343Z,46.80
2019-02-15T13:29:28.928Z,46.40
2019-02-15T13:30:31.565Z,46.70
2019-02-15T13:31:34.350Z,46.40
2019-02-15T13:32:37.023Z,46.70
2019-02-15T13:33:39.619Z,46.70
2019-02-15T13:34:42.768Z,46.90
2019-02-15T13:35:45.554Z,46.40
2019-02-15T13:36:48.311Z,46.50
2019-02-15T13:37:51.277Z,46.60
2019-02-15T13:38:55.790Z,47.20
2019-02-15T13:39:58.397Z,46.40
2019-02-15T13:41:01.283Z,46.80
2019-02-15T13:42:05.849Z,46.30
2019-02-15T13:43:08.390Z,46.90
2019-02-15T13:44:11.369Z,46.30
2019-02-15T13:45:14.047Z,46.10
2019-02-15T13:46:16.794Z,47.00
2019-02-15T13:47:34.488Z,47.10
2019-02-15T13:48:36.001Z,47.40
2019-02-15T13:49:38.587Z,46.90
2019-02-15T13:50:41.473Z,47.50
2019-02-15T13:51:45.742Z,48.90
2019-02-15T13:52:48.427Z,47.40
2019-02-15T13:53:50.996Z,48.40